Time;durP1;ratioP1;P1;durP2;ratioP2;P2;SDS_P1;SDS_P2;PMS_P1;PMS_P2;Temp;Humidity;BMP_temperature;BMP_pressure;BME280_temperature;BME280_humidity;BME280_pressure;Samples;Min_cycle;Max_cycle;Signal;HPM_P1;HPM_P2
2024/01/15 00:02:00;;;;;;;20.50;13.18;;;;;;;15.17;49.22;100451.94;4942358;29;20056;-35
2024/01/15 00:04:27;;;;;;;21.65;13.15;;;;;;;15.16;49.02;100447.59;4944185;28;20044;-34
2024/01/15 00:06:54;;;;;;;19.35;12.13;;;;;;;15.16;48.72;100449.41;4943144;29;20055;-37
2024/01/15 00:09:21;;;;;;;20.25;12.93;;;;;;;15.15;48.81;100445.03;4943644;29;20142;-37
2024/01/15 00:11:48;;;;;;;20.42;12.88;;;;;;;15.13;49.09;100439.84;4943543;29;20510;-35
2024/01/15 00:14:19;;;;;;;19.52;11.88;;;;;;;15.13;49.15;100439.03;4945264;29;20281;-34
2024/01/15 00:16:48;;;;;;;19.75;12.70;;;;;;;15.11;49.09;100438.31;4946066;29;20059;-35
2024/01/15 00:19:15;;;;;;;20.13;11.88;;;;;;;15.10;49.53;100432.13;4945246;29;20051;-34
2024/01/15 00:21:42;;;;;;;18.30;11.40;;;;;;;15.08;49.77;100426.09;4941844;29;20055;-35
2024/01/15 00:24:09;;;;;;;17.33;11.55;;;;;;;15.08;49.40;100425.28;4944003;29;20130;-35
2024/01/15 00:26:36;;;;;;;18.55;11.60;;;;;;;15.07;49.84;100424.41;4943960;28;20220;-35
2024/01/15 00:29:03;;;;;;;17.88;10.98;;;;;;;15.05;48.99;100424.56;4944307;28;20089;-34
2024/01/15 00:31:30;;;;;;;16.70;11.02;;;;;;;15.05;50.15;100413.03;4941360;28;20082;-34
2024/01/15 00:33:57;;;;;;;18.45;11.68;;;;;;;15.04;49.68;100422.03;4943251;29;20043;-34
2024/01/15 00:36:24;;;;;;;17.52;10.90;;;;;;;15.03;50.20;100420.34;4939531;28;20055;-35
2024/01/15 00:38:51;;;;;;;18.90;11.15;;;;;;;15.02;49.53;100421.34;4942277;28;20054;-34
2024/01/15 00:41:18;;;;;;;17.05;10.93;;;;;;;15.01;50.00;100419.66;4942213;29;20061;-36
2024/01/15 00:43:50;;;;;;;15.23;9.65;;;;;;;14.99;49.86;100411.78;4941452;29;20051;-35
2024/01/15 00:46:17;;;;;;;17.05;9.93;;;;;;;14.98;49.54;100407.44;4939534;29;20115;-34
2024/01/15 00:48:44;;;;;;;16.08;9.90;;;;;;;14.97;49.78;100404.91;4943049;28;20383;-34
2024/01/15 00:51:10;;;;;;;16.25;10.07;;;;;;;14.96;49.32;100406.75;4943893;29;20359;-35
2024/01/15 00:53:37;;;;;;;14.57;9.35;;;;;;;14.95;49.29;100396.19;4941909;28;20051;-36
2024/01/15 00:56:03;;;;;;;17.08;10.43;;;;;;;14.93;49.21;100400.84;4944688;29;20055;-35
2024/01/15 00:58:30;;;;;;;14.57;9.70;;;;;;;14.91;50.30;100395.66;4941734;28;20079;-36
2024/01/15 01:00:57;;;;;;;14.90;9.15;;;;;;;14.91;49.39;100398.31;4940220;29;20055;-37
2024/01/15 01:03:23;;;;;;;15.85;9.65;;;;;;;14.90;50.17;100395.81;4938862;29;20051;-37
2024/01/15 01:05:50;;;;;;;13.55;9.07;;;;;;;14.89;50.01;100394.13;4940395;29;20089;-35
2024/01/15 01:08:17;;;;;;;13.18;8.05;;;;;;;14.88;49.26;100381.78;4938987;29;20051;-35
2024/01/15 01:10:43;;;;;;;11.32;8.00;;;;;;;14.87;49.36;100388.09;4945519;29;20055;-35
2024/01/15 01:13:10;;;;;;;12.75;8.55;;;;;;;14.87;49.37;100391.59;4939525;29;20060;-35
2024/01/15 01:15:38;;;;;;;12.60;8.48;;;;;;;14.87;49.56;100390.75;4937616;29;20051;-35
2024/01/15 01:18:05;;;;;;;13.95;8.32;;;;;;;14.86;49.53;100383.75;4941239;29;20407;-35
2024/01/15 01:20:32;;;;;;;12.38;7.93;;;;;;;14.85;49.74;100384.72;4940468;29;20107;-35
2024/01/15 01:22:59;;;;;;;13.65;7.85;;;;;;;14.85;50.32;100376.72;4942652;29;20062;-36
2024/01/15 01:25:26;;;;;;;12.63;7.78;;;;;;;14.83;50.34;100374.19;4943042;29;20430;-39
2024/01/15 01:27:53;;;;;;;13.18;7.60;;;;;;;14.82;50.31;100376.00;4941495;28;20344;-37
2024/01/15 01:30:19;;;;;;;10.63;7.53;;;;;;;14.82;49.75;100377.84;4941788;29;20103;-35
2024/01/15 01:32:46;;;;;;;12.45;7.90;;;;;;;14.81;49.54;100381.50;4941857;29;20177;-36
2024/01/15 01:35:14;;;;;;;11.60;7.28;;;;;;;14.79;50.20;100387.00;4943586;28;20083;-36
2024/01/15 01:37:40;;;;;;;10.25;7.07;;;;;;;14.80;49.36;100386.00;4945378;29;20047;-35
2024/01/15 01:40:07;;;;;;;11.02;7.10;;;;;;;14.79;50.34;100381.66;4937801;29;20102;-35
2024/01/15 01:42:34;;;;;;;10.10;6.57;;;;;;;14.77;49.59;100375.59;4942787;29;20451;-36
2024/01/15 01:45:01;;;;;;;9.57;6.45;;;;;;;14.77;50.35;100380.09;4939543;28;20432;-34
2024/01/15 01:47:28;;;;;;;9.70;6.53;;;;;;;14.76;49.55;100384.59;4944329;29;20109;-35
2024/01/15 01:49:54;;;;;;;10.60;6.72;;;;;;;14.74;49.54;100381.22;4947994;28;20054;-35
2024/01/15 01:52:21;;;;;;;9.40;6.53;;;;;;;14.75;50.14;100384.72;4941753;29;20094;-36
2024/01/15 01:54:48;;;;;;;12.10;6.80;;;;;;;14.73;49.88;100379.56;4941919;28;20432;-35
2024/01/15 01:57:16;;;;;;;11.27;6.38;;;;;;;14.75;50.06;100380.25;4940622;29;20070;-36
2024/01/15 01:59:44;;;;;;;10.00;6.25;;;;;;;14.79;49.85;100380.78;4944645;29;20058;-35
2024/01/15 02:02:11;;;;;;;9.00;5.95;;;;;;;14.86;49.55;100375.72;4942304;29;20439;-35
2024/01/15 02:04:38;;;;;;;9.00;5.90;;;;;;;14.93;49.31;100379.50;4941283;29;20058;-36
2024/01/15 02:07:05;;;;;;;10.25;5.38;;;;;;;15.01;50.04;100383.13;4942814;29;20051;-35
2024/01/15 02:09:32;;;;;;;9.30;5.47;;;;;;;15.09;49.45;100385.09;4945352;29;20055;-35
2024/01/15 02:11:59;;;;;;;9.15;5.90;;;;;;;15.18;48.99;100375.34;4943798;28;20059;-35
2024/01/15 02:14:25;;;;;;;9.43;5.47;;;;;;;15.25;49.65;100366.59;4941987;29;20055;-35
2024/01/15 02:16:52;;;;;;;10.10;5.80;;;;;;;15.32;49.55;100366.88;4941476;29;20047;-35
2024/01/15 02:19:19;;;;;;;8.40;5.15;;;;;;;15.39;49.25;100372.44;4942788;28;20051;-35
2024/01/15 02:21:46;;;;;;;11.45;5.90;;;;;;;15.44;49.34;100375.53;4944189;28;20053;-36
2024/01/15 02:24:13;;;;;;;6.45;4.43;;;;;;;15.48;49.43;100366.25;4941169;28;20044;-36
2024/01/15 02:26:40;;;;;;;6.47;4.45;;;;;;;15.49;49.34;100374.09;4941769;28;20051;-36
2024/01/15 02:29:10;;;;;;;6.20;4.40;;;;;;;15.51;49.33;100395.28;4942667;28;20130;-35
2024/01/15 02:31:37;;;;;;;8.02;4.53;;;;;;;15.53;49.24;100398.69;4943346;28;20059;-35
2024/01/15 02:34:04;;;;;;;7.57;4.93;;;;;;;15.53;48.50;100396.00;4941525;28;20052;-35
2024/01/15 02:36:31;;;;;;;6.72;4.22;;;;;;;15.54;48.19;100377.16;4944499;28;20055;-36
2024/01/15 02:38:58;;;;;;;6.63;4.43;;;;;;;15.53;48.14;100383.47;4941484;28;20059;-35
2024/01/15 02:41:24;;;;;;;7.97;4.32;;;;;;;15.53;48.55;100383.47;4940704;29;20059;-36
2024/01/15 02:43:51;;;;;;;7.13;4.68;;;;;;;15.53;48.81;100370.13;4939176;29;20058;-38
2024/01/15 02:46:17;;;;;;;8.45;4.10;;;;;;;15.53;49.11;100367.47;4939751;29;20062;-36
2024/01/15 02:48:44;;;;;;;6.60;4.10;;;;;;;15.52;48.93;100365.78;4941159;28;20055;-36
2024/01/15 02:51:11;;;;;;;6.53;3.90;;;;;;;15.50;49.29;100351.72;4937432;29;20411;-34
2024/01/15 02:53:38;;;;;;;7.20;4.07;;;;;;;15.50;49.20;100358.91;4941484;29;20051;-34
2024/01/15 02:56:07;;;;;;;5.97;4.25;;;;;;;15.49;48.27;100351.88;4939202;28;20404;-36
2024/01/15 02:58:34;;;;;;;6.15;3.67;;;;;;;15.47;49.32;100359.19;4943169;29;20355;-35
2024/01/15 03:01:00;;;;;;;6.60;4.00;;;;;;;15.43;48.35;100345.28;4942897;28;20074;-36
2024/01/15 03:03:28;;;;;;;6.47;3.72;;;;;;;15.41;48.62;100343.78;4948527;28;20049;-35
2024/01/15 03:05:55;;;;;;;4.97;3.50;;;;;;;15.38;49.23;100347.56;4943938;28;20126;-35
2024/01/15 03:08:22;;;;;;;6.80;3.80;;;;;;;15.35;48.43;100347.88;4945472;28;20452;-35
2024/01/15 03:10:49;;;;;;;7.32;3.67;;;;;;;15.30;49.62;100361.66;4949884;29;20387;-35
2024/01/15 03:13:16;;;;;;;5.88;4.00;;;;;;;15.30;49.28;100366.16;4943928;28;20083;-35
2024/01/15 03:15:43;;;;;;;5.55;3.45;;;;;;;15.31;49.13;100346.47;4946255;29;20403;-36
2024/01/15 03:18:10;;;;;;;5.35;3.33;;;;;;;15.33;49.32;100347.19;4942878;29;20051;-35
2024/01/15 03:20:37;;;;;;;5.97;3.38;;;;;;;15.40;48.67;100339.44;4948580;28;20082;-35
2024/01/15 03:23:03;;;;;;;4.90;3.08;;;;;;;15.46;49.54;100338.81;4941334;29;20055;-37
2024/01/15 03:25:30;;;;;;;6.05;3.20;;;;;;;15.52;48.30;100341.75;4941598;29;20040;-35
2024/01/15 03:27:56;;;;;;;6.13;3.63;;;;;;;15.60;48.35;100341.00;4944166;28;20058;-35
2024/01/15 03:30:23;;;;;;;5.18;3.28;;;;;;;15.67;48.27;100341.25;4942027;29;20051;-36
2024/01/15 03:32:50;;;;;;;4.55;3.08;;;;;;;15.74;48.29;100337.84;4941909;29;20058;-35
2024/01/15 03:35:17;;;;;;;6.22;3.22;;;;;;;15.79;48.95;100332.88;4942306;29;20546;-37
2024/01/15 03:37:43;;;;;;;5.45;3.10;;;;;;;15.83;48.73;100337.91;4942129;29;20452;-35
2024/01/15 03:40:10;;;;;;;4.68;2.80;;;;;;;15.83;48.25;100337.91;4946894;29;20051;-36
2024/01/15 03:42:37;;;;;;;4.35;2.97;;;;;;;15.79;47.84;100345.38;4948511;29;20575;-36
2024/01/15 03:45:04;;;;;;;4.57;2.95;;;;;;;15.76;48.85;100354.56;4945790;29;20055;-38
2024/01/15 03:47:31;;;;;;;4.85;3.00;;;;;;;15.72;47.79;100345.16;4948748;29;20043;-36
2024/01/15 03:49:58;;;;;;;4.68;2.58;;;;;;;15.67;48.74;100333.25;4945856;28;20066;-36
2024/01/15 03:52:24;;;;;;;4.28;2.60;;;;;;;15.63;48.48;100329.16;4946477;28;20066;-37
2024/01/15 03:54:51;;;;;;;4.40;2.70;;;;;;;15.59;48.02;100328.59;4944094;29;20048;-36
2024/01/15 03:57:18;;;;;;;5.60;3.15;;;;;;;15.54;48.18;100325.56;4945371;28;20060;-36
2024/01/15 03:59:47;;;;;;;5.47;2.92;;;;;;;15.49;48.26;100322.50;4942059;28;20055;-35
2024/01/15 04:02:14;;;;;;;5.03;2.88;;;;;;;15.43;48.46;100320.41;4946597;28;20059;-35
2024/01/15 04:04:42;;;;;;;5.97;2.50;;;;;;;15.37;48.88;100315.69;4946178;29;20047;-34
2024/01/15 04:07:09;;;;;;;3.97;2.28;;;;;;;15.30;49.08;100323.44;4944224;29;20055;-35
2024/01/15 04:09:36;;;;;;;4.05;2.35;;;;;;;15.21;49.25;100314.50;4945599;28;20143;-36
2024/01/15 04:12:03;;;;;;;4.25;2.40;;;;;;;15.16;49.67;100318.63;4945497;28;20348;-36
2024/01/15 04:14:30;;;;;;;3.55;2.30;;;;;;;15.09;50.13;100310.34;4949084;28;20138;-35
2024/01/15 04:16:56;;;;;;;3.60;2.45;;;;;;;15.02;49.43;100310.09;4945080;28;20124;-35
2024/01/15 04:19:23;;;;;;;4.28;2.53;;;;;;;14.97;50.29;100307.03;4939037;29;20130;-35
2024/01/15 04:21:49;;;;;;;4.32;2.50;;;;;;;14.92;49.66;100308.47;4950153;29;20047;-34
2024/01/15 04:24:17;;;;;;;3.42;2.15;;;;;;;14.87;50.07;100311.53;4943783;29;20474;-35
2024/01/15 04:26:45;;;;;;;3.97;2.33;;;;;;;14.81;50.02;100304.97;4941306;28;20055;-36
2024/01/15 04:29:12;;;;;;;3.90;2.45;;;;;;;14.76;49.89;100304.56;4946130;29;20119;-36
2024/01/15 04:31:38;;;;;;;3.88;2.25;;;;;;;14.73;50.23;100310.19;4946374;29;20363;-35
2024/01/15 04:34:05;;;;;;;3.28;1.92;;;;;;;14.70;50.92;100298.97;4944872;28;20051;-36
2024/01/15 04:36:32;;;;;;;3.63;2.15;;;;;;;14.64;50.90;100302.25;4944036;29;20438;-36
2024/01/15 04:38:58;;;;;;;4.45;2.45;;;;;;;14.64;50.78;100300.41;4944359;28;20059;-35
2024/01/15 04:41:25;;;;;;;3.67;2.03;;;;;;;14.75;50.09;100304.69;4942034;28;20099;-39
2024/01/15 04:43:52;;;;;;;2.95;1.85;;;;;;;14.86;50.36;100303.69;4945995;28;20058;-35
2024/01/15 04:46:19;;;;;;;2.85;1.83;;;;;;;15.01;50.56;100297.72;4944432;29;20492;-34
2024/01/15 04:48:46;;;;;;;4.68;2.28;;;;;;;15.18;49.68;100303.28;4944704;28;20051;-34
2024/01/15 04:51:13;;;;;;;2.80;1.80;;;;;;;15.34;49.21;100294.63;4943692;28;20056;-37
2024/01/15 04:53:40;;;;;;;3.55;1.83;;;;;;;15.48;49.26;100296.78;4944689;29;20054;-36
2024/01/15 04:56:06;;;;;;;3.90;2.17;;;;;;;15.58;49.39;100284.19;4943046;28;20047;-35
2024/01/15 04:58:33;;;;;;;3.38;1.83;;;;;;;15.68;48.28;100282.34;4942562;29;20050;-35
2024/01/15 05:01:00;;;;;;;2.88;1.70;;;;;;;15.76;48.59;100285.09;4942755;28;20083;-36
2024/01/15 05:03:26;;;;;;;2.38;1.52;;;;;;;15.82;48.70;100269.44;4940717;29;20051;-35
2024/01/15 05:05:53;;;;;;;2.88;1.73;;;;;;;15.85;48.53;100271.81;4940641;29;20126;-37
2024/01/15 05:08:20;;;;;;;3.47;1.98;;;;;;;15.83;47.62;100279.97;4945525;29;20062;-35
2024/01/15 05:10:47;;;;;;;4.13;2.15;;;;;;;15.81;48.06;100278.44;4944802;29;20114;-36
2024/01/15 05:13:14;;;;;;;3.55;2.60;;;;;;;15.75;48.80;100278.06;4944093;28;20440;-35
2024/01/15 05:15:40;;;;;;;6.93;3.65;;;;;;;15.71;48.08;100268.66;4945058;28;20055;-34
2024/01/15 05:18:07;;;;;;;5.72;3.25;;;;;;;15.65;47.82;100269.28;4941520;28;20055;-34
2024/01/15 05:20:34;;;;;;;5.70;3.55;;;;;;;15.62;49.06;100271.38;4940769;28;20118;-35
2024/01/15 05:23:01;;;;;;;6.50;3.90;;;;;;;15.59;48.73;100261.00;4941695;29;20058;-35
2024/01/15 05:25:28;;;;;;;7.05;4.00;;;;;;;15.54;48.95;100264.13;4942755;29;20385;-36
2024/01/15 05:27:54;;;;;;;8.75;4.70;;;;;;;15.50;48.41;100260.06;4940508;29;20208;-36
2024/01/15 05:30:21;;;;;;;10.07;5.38;;;;;;;15.44;49.16;100260.69;4939748;28;20087;-35
2024/01/15 05:32:47;;;;;;;8.00;5.13;;;;;;;15.38;48.38;100270.13;4938433;29;20056;-34
2024/01/15 05:35:14;;;;;;;7.95;4.20;;;;;;;15.31;49.54;100264.53;4942343;29;20183;-35
2024/01/15 05:37:45;;;;;;;7.68;5.03;;;;;;;15.27;48.79;100263.16;4944740;29;20047;-34
2024/01/15 05:40:13;;;;;;;8.32;5.10;;;;;;;15.22;48.69;100259.28;4944723;29;20047;-35
2024/01/15 05:42:40;;;;;;;8.68;4.82;;;;;;;15.17;48.91;100264.22;4945654;29;20339;-34
2024/01/15 05:45:07;;;;;;;9.05;5.70;;;;;;;15.10;49.50;100266.66;4941164;28;20059;-34
2024/01/15 05:47:34;;;;;;;8.80;5.15;;;;;;;15.05;49.95;100261.75;4943501;29;20055;-34
2024/01/15 05:50:02;;;;;;;8.43;5.25;;;;;;;15.01;50.10;100270.22;4940579;28;20055;-34
2024/01/15 05:52:28;;;;;;;9.57;5.20;;;;;;;14.95;49.70;100262.78;4943396;29;20537;-36
2024/01/15 05:54:55;;;;;;;11.13;6.30;;;;;;;14.89;49.53;100261.56;4943343;29;20051;-34
2024/01/15 05:57:22;;;;;;;10.25;5.85;;;;;;;14.89;50.04;100252.72;4939196;29;20058;-36
2024/01/15 05:59:48;;;;;;;9.10;5.57;;;;;;;14.94;50.27;100261.09;4946984;29;20047;-35
2024/01/15 06:02:15;;;;;;;9.57;5.63;;;;;;;15.02;49.55;100248.69;4944848;28;20447;-36
2024/01/15 06:04:42;;;;;;;9.68;5.88;;;;;;;15.13;49.47;100250.34;4947070;29;20106;-34
2024/01/15 06:07:08;;;;;;;10.95;6.78;;;;;;;15.22;49.71;100240.59;4945666;29;20071;-35
2024/01/15 06:09:35;;;;;;;10.95;6.57;;;;;;;15.31;48.71;100237.00;4945143;28;20138;-35
2024/01/15 06:12:02;;;;;;;10.85;6.97;;;;;;;15.40;48.50;100238.78;4946351;29;20059;-35
2024/01/15 06:14:28;;;;;;;11.93;6.95;;;;;;;15.48;48.93;100230.03;4944042;29;20080;-36
2024/01/15 06:16:55;;;;;;;10.85;6.70;;;;;;;15.54;49.17;100232.91;4946348;28;20095;-35
2024/01/15 06:19:21;;;;;;;12.13;6.93;;;;;;;15.60;48.96;100235.97;4945611;29;20143;-35
2024/01/15 06:21:48;;;;;;;10.88;6.80;;;;;;;15.60;49.05;100250.19;4946973;29;20059;-34
2024/01/15 06:24:17;;;;;;;12.18;7.32;;;;;;;15.61;49.07;100248.34;4945667;29;20065;-35
2024/01/15 06:26:45;;;;;;;11.00;6.68;;;;;;;15.60;48.37;100260.00;4947142;29;20051;-34
2024/01/15 06:29:12;;;;;;;11.93;7.28;;;;;;;15.59;48.45;100271.69;4946072;28;20050;-34
2024/01/15 06:31:39;;;;;;;12.55;8.15;;;;;;;15.58;49.20;100273.50;4946072;28;20320;-34
2024/01/15 06:34:05;;;;;;;11.45;6.90;;;;;;;15.57;49.00;100276.34;4939786;28;20271;-34
2024/01/15 06:36:32;;;;;;;12.45;7.78;;;;;;;15.57;48.19;100253.16;4946777;29;20135;-34
2024/01/15 06:38:59;;;;;;;11.88;7.25;;;;;;;15.57;48.90;100242.47;4944976;29;20126;-34
2024/01/15 06:41:25;;;;;;;12.10;7.15;;;;;;;15.56;48.36;100232.78;4944928;29;20427;-35
2024/01/15 06:43:52;;;;;;;11.02;7.30;;;;;;;15.53;48.72;100241.94;4944975;29;20083;-34
2024/01/15 06:46:22;;;;;;;9.80;6.30;;;;;;;15.51;48.36;100240.38;4943383;28;20078;-34
2024/01/15 06:48:49;;;;;;;10.88;7.15;;;;;;;15.48;48.57;100241.56;4946968;29;20047;-34
2024/01/15 06:51:16;;;;;;;12.13;7.50;;;;;;;15.45;48.28;100233.00;4947354;29;20055;-35
2024/01/15 06:53:43;;;;;;;10.70;7.03;;;;;;;15.41;48.25;100242.31;4949207;29;20090;-34
2024/01/15 06:56:10;;;;;;;9.80;6.70;;;;;;;15.38;48.79;100266.63;4945703;28;20494;-34
2024/01/15 06:58:36;;;;;;;11.68;7.65;;;;;;;15.35;49.30;100272.25;4944324;29;20057;-35
2024/01/15 07:01:04;;;;;;;10.55;6.80;;;;;;;15.31;49.35;100272.56;4946628;29;20440;-36
2024/01/15 07:03:31;;;;;;;11.18;7.35;;;;;;;15.31;48.28;100269.06;4943890;29;20106;-36
2024/01/15 07:05:58;;;;;;;10.45;6.65;;;;;;;15.28;48.39;100286.22;4944684;28;20329;-34
2024/01/15 07:08:25;;;;;;;13.80;7.53;;;;;;;15.25;49.42;100297.19;4946270;28;20074;-36
2024/01/15 07:10:52;;;;;;;11.02;7.03;;;;;;;15.23;48.50;100279.63;4943838;29;20070;-35
2024/01/15 07:13:18;;;;;;;12.00;7.00;;;;;;;15.21;49.38;100269.13;4944325;29;20059;-35
2024/01/15 07:15:45;;;;;;;12.82;7.45;;;;;;;15.19;49.65;100264.91;4943561;29;20103;-34
2024/01/15 07:18:12;;;;;;;12.00;7.63;;;;;;;15.17;49.27;100275.75;4943671;29;20114;-35
2024/01/15 07:20:38;;;;;;;10.80;6.68;;;;;;;15.13;48.70;100286.88;4941483;29;20134;-35
2024/01/15 07:23:05;;;;;;;11.65;7.07;;;;;;;15.08;49.04;100276.66;4939439;29;20064;-35
2024/01/15 07:25:33;;;;;;;12.30;7.72;;;;;;;15.03;49.22;100274.41;4940103;29;20122;-36
2024/01/15 07:28:00;;;;;;;11.05;7.15;;;;;;;14.99;49.84;100266.84;4945727;29;20055;-35
2024/01/15 07:30:27;;;;;;;11.30;6.53;;;;;;;14.95;49.33;100265.44;4945878;28;20086;-34
2024/01/15 07:32:53;;;;;;;12.38;7.28;;;;;;;14.92;49.61;100271.09;4938282;28;20102;-34
2024/01/15 07:35:21;;;;;;;8.55;6.15;;;;;;;14.88;50.25;100264.38;4944819;28;20130;-34
2024/01/15 07:37:47;;;;;;;11.95;7.38;;;;;;;14.84;50.26;100276.34;4949181;29;20094;-35
2024/01/15 07:40:14;;;;;;;11.52;7.20;;;;;;;14.80;50.64;100281.13;4942762;28;20052;-36
2024/01/15 07:42:42;;;;;;;10.52;7.00;;;;;;;14.75;50.08;100286.03;4945740;28;20086;-35
2024/01/15 07:45:10;;;;;;;12.43;7.30;;;;;;;14.71;50.32;100285.50;4945621;29;20102;-35
2024/01/15 07:47:37;;;;;;;10.93;6.72;;;;;;;14.67;50.48;100277.91;4943188;28;20066;-36
2024/01/15 07:50:04;;;;;;;10.77;6.90;;;;;;;14.64;49.94;100263.06;4945053;29;20167;-36
2024/01/15 07:52:32;;;;;;;11.57;7.00;;;;;;;14.60;50.86;100264.34;4945087;28;20400;-36
2024/01/15 07:55:03;;;;;;;10.63;6.47;;;;;;;14.59;50.84;100269.81;4941688;29;20146;-37
2024/01/15 07:57:30;;;;;;;10.18;6.50;;;;;;;14.54;50.62;100256.91;4945471;28;20134;-38
2024/01/15 07:59:57;;;;;;;10.65;6.30;;;;;;;14.51;51.01;100251.84;4943908;28;20051;-36
2024/01/15 08:02:24;;;;;;;10.10;6.65;;;;;;;14.48;51.04;100260.97;4939862;29;20078;-36
2024/01/15 08:04:50;;;;;;;10.68;6.43;;;;;;;14.47;50.62;100261.97;4942517;29;20379;-37
2024/01/15 08:07:17;;;;;;;10.63;6.20;;;;;;;14.44;50.83;100264.91;4940077;28;20062;-36
2024/01/15 08:09:46;;;;;;;10.30;6.05;;;;;;;14.44;50.92;100270.25;4943150;29;20483;-36
2024/01/15 08:12:13;;;;;;;9.75;6.32;;;;;;;14.42;51.22;100274.88;4951667;28;20451;-36
2024/01/15 08:14:40;;;;;;;9.07;6.18;;;;;;;14.41;50.66;100278.53;4946648;28;20134;-35
2024/01/15 08:17:06;;;;;;;10.20;6.03;;;;;;;14.39;50.78;100272.50;4950055;28;20055;-35
2024/01/15 08:19:33;;;;;;;10.70;6.75;;;;;;;14.37;51.22;100273.63;4944952;29;20055;-38
2024/01/15 08:22:00;;;;;;;9.63;5.97;;;;;;;14.37;51.34;100281.63;4948699;29;20061;-37
2024/01/15 08:24:26;;;;;;;9.25;6.18;;;;;;;14.35;50.91;100308.41;4947506;29;20106;-37
2024/01/15 08:26:53;;;;;;;8.32;5.43;;;;;;;14.32;50.81;100314.88;4949918;29;20130;-37
2024/01/15 08:29:20;;;;;;;8.32;5.25;;;;;;;14.32;51.18;100319.38;4950191;29;20351;-36
2024/01/15 08:31:48;;;;;;;10.05;6.15;;;;;;;14.36;50.72;100311.94;4949499;28;20055;-39
2024/01/15 08:34:14;;;;;;;8.90;5.50;;;;;;;14.33;51.32;100289.06;4948823;28;20063;-36
2024/01/15 08:36:41;;;;;;;9.23;5.25;;;;;;;14.32;51.36;100272.25;4949237;29;20151;-35
2024/01/15 08:39:08;;;;;;;8.30;5.05;;;;;;;14.30;50.91;100268.84;4947507;28;20063;-35
2024/01/15 08:41:36;;;;;;;10.45;5.40;;;;;;;14.31;51.16;100257.25;4949119;28;20047;-35
2024/01/15 08:44:02;;;;;;;8.27;5.50;;;;;;;14.32;51.17;100264.25;4946333;28;20047;-35
2024/01/15 08:46:29;;;;;;;7.90;5.20;;;;;;;14.32;51.06;100264.25;4944802;29;20047;-34
2024/01/15 08:48:56;;;;;;;9.90;5.50;;;;;;;14.35;51.04;100270.25;4948159;29;20075;-35
2024/01/15 08:51:23;;;;;;;9.35;5.55;;;;;;;14.37;51.07;100266.47;4944279;28;20044;-40
2024/01/15 08:53:49;;;;;;;7.40;4.78;;;;;;;14.41;51.16;100296.34;4942165;28;20264;-36
2024/01/15 08:56:16;;;;;;;9.95;5.63;;;;;;;14.42;50.36;100300.69;4948066;29;20039;-37
2024/01/15 08:58:43;;;;;;;9.07;5.35;;;;;;;14.42;51.06;100296.19;4944843;28;20150;-34
2024/01/15 09:01:09;;;;;;;9.23;5.18;;;;;;;14.44;50.77;100296.06;4945852;29;20060;-35
2024/01/15 09:03:36;;;;;;;7.53;4.90;;;;;;;14.44;50.87;100298.75;4945460;28;20242;-34
2024/01/15 09:06:03;;;;;;;7.88;4.25;;;;;;;14.45;50.36;100305.75;4945128;28;20231;-35
2024/01/15 09:08:30;;;;;;;8.30;4.88;;;;;;;14.44;51.24;100299.56;4942895;28;20062;-35
2024/01/15 09:10:57;;;;;;;7.45;4.63;;;;;;;14.46;50.81;100299.41;4943042;28;20055;-36
2024/01/15 09:13:23;;;;;;;8.48;5.65;;;;;;;14.48;50.78;100297.47;4943132;28;20094;-37
2024/01/15 09:15:50;;;;;;;7.97;4.88;;;;;;;14.49;50.49;100302.69;4942720;29;20200;-36
2024/01/15 09:18:17;;;;;;;7.05;4.85;;;;;;;14.50;50.90;100296.34;4941580;28;20082;-37
2024/01/15 09:20:43;;;;;;;8.65;4.60;;;;;;;14.52;50.75;100299.72;4940535;29;20055;-37
2024/01/15 09:23:10;;;;;;;7.25;4.05;;;;;;;14.51;51.25;100295.38;4947213;28;20055;-35
2024/01/15 09:25:37;;;;;;;8.35;4.55;;;;;;;14.52;50.65;100302.41;4939339;29;20054;-35
2024/01/15 09:28:04;;;;;;;8.15;3.90;;;;;;;14.51;50.31;100305.19;4943303;28;20050;-36
2024/01/15 09:30:30;;;;;;;7.50;4.80;;;;;;;14.51;50.96;100311.38;4947617;28;20051;-35
2024/01/15 09:32:58;;;;;;;7.43;4.50;;;;;;;14.50;50.32;100298.19;4941620;29;20051;-36
2024/01/15 09:35:25;;;;;;;8.52;4.47;;;;;;;14.49;51.14;100291.19;4945884;28;20062;-35
2024/01/15 09:37:51;;;;;;;11.60;5.07;;;;;;;14.49;50.40;100286.69;4946197;29;20062;-37
2024/01/15 09:40:20;;;;;;;10.50;5.47;;;;;;;14.50;51.12;100290.19;4945759;29;20119;-38
2024/01/15 09:42:47;;;;;;;12.90;5.25;;;;;;;14.49;51.35;100285.84;4942142;29;20051;-35
2024/01/15 09:45:14;;;;;;;8.77;5.28;;;;;;;14.50;51.15;100283.03;4940809;29;20430;-37
2024/01/15 09:47:43;;;;;;;9.02;5.40;;;;;;;14.56;50.86;100277.13;4941908;28;20055;-36
2024/01/15 09:50:13;;;;;;;12.85;5.80;;;;;;;14.63;52.03;100282.69;4938770;28;20578;-36
2024/01/15 09:52:40;;;;;;;9.45;5.10;;;;;;;14.72;51.38;100276.50;4937773;29;20043;-35
2024/01/15 09:55:09;;;;;;;8.93;5.50;;;;;;;14.81;51.04;100274.78;4941421;29;20055;-34
2024/01/15 09:57:36;;;;;;;9.10;5.57;;;;;;;14.90;51.96;100270.41;4943677;29;20114;-35
2024/01/15 10:00:06;;;;;;;10.18;5.35;;;;;;;14.99;51.00;100280.19;4942596;28;20498;-34
2024/01/15 10:02:35;;;;;;;10.38;5.40;;;;;;;15.09;51.77;100294.34;4937640;29;20120;-35
2024/01/15 10:05:02;;;;;;;12.65;6.18;;;;;;;15.14;51.38;100292.06;4938224;28;20098;-35
2024/01/15 10:07:30;;;;;;;10.65;5.78;;;;;;;15.21;50.93;100289.63;4945298;29;20043;-36
2024/01/15 10:09:57;;;;;;;9.38;5.50;;;;;;;15.29;50.90;100300.41;4940103;28;20131;-36
2024/01/15 10:12:26;;;;;;;8.15;5.07;;;;;;;15.36;51.05;100303.34;4946777;29;20113;-36
2024/01/15 10:14:53;;;;;;;10.30;5.63;;;;;;;15.41;50.22;100295.72;4944041;29;20059;-36
2024/01/15 10:17:21;;;;;;;8.93;5.38;;;;;;;15.45;50.01;100297.09;4946766;28;20090;-35
2024/01/15 10:19:48;;;;;;;8.27;5.53;;;;;;;15.48;49.99;100294.13;4944254;29;20043;-37
2024/01/15 10:22:17;;;;;;;11.63;6.25;;;;;;;15.49;49.58;100301.97;4945566;28;20098;-35
2024/01/15 10:24:46;;;;;;;8.48;4.95;;;;;;;15.48;49.42;100291.47;4946997;29;20058;-35
2024/01/15 10:27:13;;;;;;;10.85;5.88;;;;;;;15.46;49.30;100290.75;4945060;29;20070;-35
2024/01/15 10:29:42;;;;;;;8.65;4.97;;;;;;;15.42;49.22;100284.03;4945800;29;20389;-36
2024/01/15 10:32:09;;;;;;;8.57;5.90;;;;;;;15.38;49.60;100285.31;4948339;29;20114;-36
2024/01/15 10:34:42;;;;;;;9.55;5.35;;;;;;;15.31;50.90;100290.41;4945159;29;20138;-37
2024/01/15 10:37:10;;;;;;;10.55;5.05;;;;;;;15.28;50.18;100296.06;4945759;29;20098;-37
2024/01/15 10:39:38;;;;;;;8.18;5.15;;;;;;;15.24;50.92;100297.34;4946302;29;20102;-36
2024/01/15 10:42:06;;;;;;;10.30;5.28;;;;;;;15.23;51.55;100296.50;4950597;29;20050;-36
2024/01/15 10:44:33;;;;;;;8.20;4.88;;;;;;;15.28;51.37;100304.91;4948533;28;20114;-37
2024/01/15 10:47:00;;;;;;;8.18;5.10;;;;;;;15.35;51.55;100304.31;4949713;29;20060;-35
2024/01/15 10:49:29;;;;;;;8.23;4.85;;;;;;;15.38;49.54;100314.69;4949613;28;20051;-37
2024/01/15 10:52:00;;;;;;;8.60;5.00;;;;;;;15.40;49.60;100320.75;4947988;29;20055;-36
2024/01/15 10:54:27;;;;;;;7.40;4.32;;;;;;;15.40;49.30;100326.09;4944902;28;20062;-38
2024/01/15 10:56:56;;;;;;;9.43;4.63;;;;;;;15.37;49.90;100326.38;4944705;28;20127;-36
2024/01/15 10:59:23;;;;;;;7.43;4.40;;;;;;;15.33;49.66;100339.19;4945124;28;20060;-36
2024/01/15 11:01:53;;;;;;;8.75;4.53;;;;;;;15.28;50.80;100331.63;4943512;28;20444;-36
2024/01/15 11:04:23;;;;;;;9.18;4.57;;;;;;;15.25;50.15;100341.75;4945881;29;20059;-38
2024/01/15 11:06:55;;;;;;;8.60;5.20;;;;;;;15.22;50.48;100342.03;4944667;28;20051;-35
2024/01/15 11:09:24;;;;;;;6.93;4.20;;;;;;;15.18;50.93;100341.47;4948245;28;20047;-35
2024/01/15 11:12:12;;;;;;;7.82;4.10;;;;;;;15.13;51.46;100341.09;4945366;28;20518;-35
2024/01/15 11:14:46;;;;;;;9.30;5.22;;;;;;;15.13;50.63;100341.09;4945580;29;20059;-36
2024/01/15 11:17:14;;;;;;;6.20;3.85;;;;;;;15.12;51.02;100342.09;4942671;29;20051;-36
2024/01/15 11:19:47;;;;;;;7.50;3.70;;;;;;;15.10;50.96;100337.88;4947230;28;20051;-36
2024/01/15 11:22:29;;;;;;;;;;;;;;;15.05;51.57;100349.00;4945735;28;20082;-36